<?xml version="1.0" encoding="UTF-8" standalone="no" ?>
<gpx xmlns="http://www.topografix.com/GPX/1/1" xmlns:xsi="http://www.w3.org/2001/XMLSchema-instance" xsi:schemaLocation="http://www.topografix.com/GPX/1/1 http://www.topografix.com/GPX/1/1/gpx.xsd" version="1.1" creator="VisuGPX - https://www.visugpx.com">
  <metadata>
    <name>5ème étape du TMB</name>
    <desc><![CDATA[Étape 5 col ferret la fouly]]></desc>
  </metadata>
  <wpt lat="45.86992" lon="7.04928">
    <ele>1767</ele>
    <name><![CDATA[Arrêt bus en face le camping des Grandes Jorasses]]></name>
  </wpt>
  <wpt lat="45.87132" lon="7.05158">
    <ele>1770</ele>
    <name><![CDATA[Arnuva]]></name>
  </wpt>
  <wpt lat="45.89881" lon="7.11287">
    <ele>2070</ele>
    <name><![CDATA[Ferme de >]]></name>
  </wpt>
  <wpt lat="45.91153" lon="7.09668">
    <ele>1900</ele>
    <name><![CDATA[Le Plampro]]></name>
  </wpt>
  <wpt lat="45.91783" lon="7.10166">
    <ele>1673</ele>
    <name><![CDATA[Carrefour GR TMB]]></name>
  </wpt>
  <wpt lat="45.93181" lon="7.09901">
    <ele>1608</ele>
    <name><![CDATA[La Fouly]]></name>
  </wpt>
  <wpt lat="45.93316" lon="7.09885">
    <ele>1602</ele>
    <name><![CDATA[Arrêt d'autocar (après une petite place)]]></name>
  </wpt>
  <trk>
    <name><![CDATA[5ème étape du TMB]]></name>
    <trkseg>
      <trkpt lat="45.86992" lon="7.04928">
        <ele>1767</ele>
        <time>2021-05-11T14:37:22+02:00</time>
      </trkpt>
      <trkpt lat="45.87048" lon="7.05009">
        <ele>1769</ele>
        <time>2021-05-11T14:37:27+02:00</time>
      </trkpt>
      <trkpt lat="45.87066" lon="7.05027">
        <ele>1770</ele>
        <time>2021-05-11T14:37:32+02:00</time>
      </trkpt>
      <trkpt lat="45.87077" lon="7.05067">
        <ele>1770</ele>
        <time>2021-05-11T14:37:37+02:00</time>
      </trkpt>
      <trkpt lat="45.87132" lon="7.05124">
        <ele>1770</ele>
        <time>2021-05-11T14:37:42+02:00</time>
      </trkpt>
      <trkpt lat="45.87132" lon="7.05158">
        <ele>1770</ele>
        <time>2021-05-11T14:37:47+02:00</time>
      </trkpt>
      <trkpt lat="45.87157" lon="7.05187">
        <ele>1770</ele>
        <time>2021-05-11T14:37:52+02:00</time>
      </trkpt>
      <trkpt lat="45.87165" lon="7.05296">
        <ele>1770</ele>
        <time>2021-05-11T14:37:57+02:00</time>
      </trkpt>
      <trkpt lat="45.87238" lon="7.05476">
        <ele>1780</ele>
        <time>2021-05-11T14:38:02+02:00</time>
      </trkpt>
      <trkpt lat="45.87238" lon="7.05505">
        <ele>1782</ele>
        <time>2021-05-11T14:38:07+02:00</time>
      </trkpt>
      <trkpt lat="45.87256" lon="7.05529">
        <ele>1782</ele>
        <time>2021-05-11T14:38:12+02:00</time>
      </trkpt>
      <trkpt lat="45.87251" lon="7.05568">
        <ele>1786</ele>
        <time>2021-05-11T14:38:17+02:00</time>
      </trkpt>
      <trkpt lat="45.87303" lon="7.05649">
        <ele>1805</ele>
        <time>2021-05-11T14:38:22+02:00</time>
      </trkpt>
      <trkpt lat="45.87321" lon="7.05662">
        <ele>1813</ele>
        <time>2021-05-11T14:38:27+02:00</time>
      </trkpt>
      <trkpt lat="45.87346" lon="7.05672">
        <ele>1821</ele>
        <time>2021-05-11T14:38:32+02:00</time>
      </trkpt>
      <trkpt lat="45.87364" lon="7.05688">
        <ele>1829</ele>
        <time>2021-05-11T14:38:37+02:00</time>
      </trkpt>
      <trkpt lat="45.87375" lon="7.05701">
        <ele>1835</ele>
        <time>2021-05-11T14:38:42+02:00</time>
      </trkpt>
      <trkpt lat="45.87377" lon="7.05727">
        <ele>1846</ele>
        <time>2021-05-11T14:38:47+02:00</time>
      </trkpt>
      <trkpt lat="45.87382" lon="7.0574">
        <ele>1852</ele>
        <time>2021-05-11T14:38:52+02:00</time>
      </trkpt>
      <trkpt lat="45.87436" lon="7.05768">
        <ele>1866</ele>
        <time>2021-05-11T14:38:57+02:00</time>
      </trkpt>
      <trkpt lat="45.87468" lon="7.05805">
        <ele>1877</ele>
        <time>2021-05-11T14:39:02+02:00</time>
      </trkpt>
      <trkpt lat="45.87479" lon="7.05858">
        <ele>1895</ele>
        <time>2021-05-11T14:39:07+02:00</time>
      </trkpt>
      <trkpt lat="45.87486" lon="7.05893">
        <ele>1906</ele>
        <time>2021-05-11T14:39:12+02:00</time>
      </trkpt>
      <trkpt lat="45.87528" lon="7.05911">
        <ele>1913</ele>
        <time>2021-05-11T14:39:17+02:00</time>
      </trkpt>
      <trkpt lat="45.87572" lon="7.0594">
        <ele>1927</ele>
        <time>2021-05-11T14:39:22+02:00</time>
      </trkpt>
      <trkpt lat="45.87618" lon="7.05963">
        <ele>1930</ele>
        <time>2021-05-11T14:39:27+02:00</time>
      </trkpt>
      <trkpt lat="45.87669" lon="7.06026">
        <ele>1947</ele>
        <time>2021-05-11T14:39:32+02:00</time>
      </trkpt>
      <trkpt lat="45.87702" lon="7.06052">
        <ele>1946</ele>
        <time>2021-05-11T14:39:37+02:00</time>
      </trkpt>
      <trkpt lat="45.87717" lon="7.06084">
        <ele>1953</ele>
        <time>2021-05-11T14:39:42+02:00</time>
      </trkpt>
      <trkpt lat="45.87795" lon="7.06143">
        <ele>1951</ele>
        <time>2021-05-11T14:39:47+02:00</time>
      </trkpt>
      <trkpt lat="45.87799" lon="7.06183">
        <ele>1965</ele>
        <time>2021-05-11T14:39:52+02:00</time>
      </trkpt>
      <trkpt lat="45.87822" lon="7.06192">
        <ele>1962</ele>
        <time>2021-05-11T14:39:57+02:00</time>
      </trkpt>
      <trkpt lat="45.8785" lon="7.06208">
        <ele>1960</ele>
        <time>2021-05-11T14:40:02+02:00</time>
      </trkpt>
      <trkpt lat="45.87874" lon="7.06229">
        <ele>1962</ele>
        <time>2021-05-11T14:40:07+02:00</time>
      </trkpt>
      <trkpt lat="45.87923" lon="7.06286">
        <ele>1971</ele>
        <time>2021-05-11T14:40:12+02:00</time>
      </trkpt>
      <trkpt lat="45.87945" lon="7.06291">
        <ele>1967</ele>
        <time>2021-05-11T14:40:17+02:00</time>
      </trkpt>
      <trkpt lat="45.88007" lon="7.06347">
        <ele>1974</ele>
        <time>2021-05-11T14:40:22+02:00</time>
      </trkpt>
      <trkpt lat="45.8802" lon="7.06377">
        <ele>1983</ele>
        <time>2021-05-11T14:40:27+02:00</time>
      </trkpt>
      <trkpt lat="45.88028" lon="7.06379">
        <ele>1982</ele>
        <time>2021-05-11T14:40:32+02:00</time>
      </trkpt>
      <trkpt lat="45.8804" lon="7.06393">
        <ele>1985</ele>
        <time>2021-05-11T14:40:37+02:00</time>
      </trkpt>
      <trkpt lat="45.88097" lon="7.06395">
        <ele>1980</ele>
        <time>2021-05-11T14:40:42+02:00</time>
      </trkpt>
      <trkpt lat="45.88123" lon="7.0641">
        <ele>1987</ele>
        <time>2021-05-11T14:40:47+02:00</time>
      </trkpt>
      <trkpt lat="45.88145" lon="7.06419">
        <ele>1990</ele>
        <time>2021-05-11T14:40:52+02:00</time>
      </trkpt>
      <trkpt lat="45.88126" lon="7.06381">
        <ele>1979</ele>
        <time>2021-05-11T14:40:57+02:00</time>
      </trkpt>
      <trkpt lat="45.88101" lon="7.06357">
        <ele>1968</ele>
        <time>2021-05-11T14:41:02+02:00</time>
      </trkpt>
      <trkpt lat="45.88094" lon="7.06316">
        <ele>1955</ele>
        <time>2021-05-11T14:41:07+02:00</time>
      </trkpt>
      <trkpt lat="45.88138" lon="7.06345">
        <ele>1973</ele>
        <time>2021-05-11T14:41:12+02:00</time>
      </trkpt>
      <trkpt lat="45.88167" lon="7.0634">
        <ele>1980</ele>
        <time>2021-05-11T14:41:17+02:00</time>
      </trkpt>
      <trkpt lat="45.88195" lon="7.06356">
        <ele>1986</ele>
        <time>2021-05-11T14:41:22+02:00</time>
      </trkpt>
      <trkpt lat="45.88216" lon="7.0643">
        <ele>2007</ele>
        <time>2021-05-11T14:41:27+02:00</time>
      </trkpt>
      <trkpt lat="45.88255" lon="7.06473">
        <ele>2017</ele>
        <time>2021-05-11T14:41:32+02:00</time>
      </trkpt>
      <trkpt lat="45.88378" lon="7.06575">
        <ele>2051</ele>
        <time>2021-05-11T14:41:37+02:00</time>
      </trkpt>
      <trkpt lat="45.88417" lon="7.06585">
        <ele>2058</ele>
        <time>2021-05-11T14:41:42+02:00</time>
      </trkpt>
      <trkpt lat="45.88437" lon="7.06598">
        <ele>2058</ele>
        <time>2021-05-11T14:41:47+02:00</time>
      </trkpt>
      <trkpt lat="45.88436" lon="7.06647">
        <ele>2061</ele>
        <time>2021-05-11T14:41:52+02:00</time>
      </trkpt>
      <trkpt lat="45.88493" lon="7.06717">
        <ele>2076</ele>
        <time>2021-05-11T14:41:57+02:00</time>
      </trkpt>
      <trkpt lat="45.88492" lon="7.06757">
        <ele>2083</ele>
        <time>2021-05-11T14:42:02+02:00</time>
      </trkpt>
      <trkpt lat="45.88466" lon="7.068">
        <ele>2098</ele>
        <time>2021-05-11T14:42:07+02:00</time>
      </trkpt>
      <trkpt lat="45.88392" lon="7.06819">
        <ele>2113</ele>
        <time>2021-05-11T14:42:12+02:00</time>
      </trkpt>
      <trkpt lat="45.88311" lon="7.06817">
        <ele>2125</ele>
        <time>2021-05-11T14:42:17+02:00</time>
      </trkpt>
      <trkpt lat="45.88339" lon="7.0685">
        <ele>2138</ele>
        <time>2021-05-11T14:42:22+02:00</time>
      </trkpt>
      <trkpt lat="45.88351" lon="7.06874">
        <ele>2149</ele>
        <time>2021-05-11T14:42:27+02:00</time>
      </trkpt>
      <trkpt lat="45.883" lon="7.06876">
        <ele>2153</ele>
        <time>2021-05-11T14:42:32+02:00</time>
      </trkpt>
      <trkpt lat="45.8831" lon="7.06906">
        <ele>2165</ele>
        <time>2021-05-11T14:42:37+02:00</time>
      </trkpt>
      <trkpt lat="45.88342" lon="7.06923">
        <ele>2173</ele>
        <time>2021-05-11T14:42:42+02:00</time>
      </trkpt>
      <trkpt lat="45.88363" lon="7.06951">
        <ele>2181</ele>
        <time>2021-05-11T14:42:47+02:00</time>
      </trkpt>
      <trkpt lat="45.88347" lon="7.06963">
        <ele>2186</ele>
        <time>2021-05-11T14:42:52+02:00</time>
      </trkpt>
      <trkpt lat="45.8835" lon="7.06982">
        <ele>2192</ele>
        <time>2021-05-11T14:42:57+02:00</time>
      </trkpt>
      <trkpt lat="45.88337" lon="7.07013">
        <ele>2201</ele>
        <time>2021-05-11T14:43:02+02:00</time>
      </trkpt>
      <trkpt lat="45.88337" lon="7.07044">
        <ele>2210</ele>
        <time>2021-05-11T14:43:07+02:00</time>
      </trkpt>
      <trkpt lat="45.8831" lon="7.07079">
        <ele>2214</ele>
        <time>2021-05-11T14:43:12+02:00</time>
      </trkpt>
      <trkpt lat="45.88342" lon="7.07107">
        <ele>2228</ele>
        <time>2021-05-11T14:43:17+02:00</time>
      </trkpt>
      <trkpt lat="45.88342" lon="7.07194">
        <ele>2252</ele>
        <time>2021-05-11T14:43:22+02:00</time>
      </trkpt>
      <trkpt lat="45.88323" lon="7.07247">
        <ele>2262</ele>
        <time>2021-05-11T14:43:27+02:00</time>
      </trkpt>
      <trkpt lat="45.88283" lon="7.07341">
        <ele>2276</ele>
        <time>2021-05-11T14:43:32+02:00</time>
      </trkpt>
      <trkpt lat="45.88272" lon="7.07407">
        <ele>2291</ele>
        <time>2021-05-11T14:43:37+02:00</time>
      </trkpt>
      <trkpt lat="45.88254" lon="7.07441">
        <ele>2294</ele>
        <time>2021-05-11T14:43:42+02:00</time>
      </trkpt>
      <trkpt lat="45.88242" lon="7.07521">
        <ele>2307</ele>
        <time>2021-05-11T14:43:47+02:00</time>
      </trkpt>
      <trkpt lat="45.88222" lon="7.0757">
        <ele>2302</ele>
        <time>2021-05-11T14:43:52+02:00</time>
      </trkpt>
      <trkpt lat="45.88248" lon="7.07574">
        <ele>2319</ele>
        <time>2021-05-11T14:43:57+02:00</time>
      </trkpt>
      <trkpt lat="45.88268" lon="7.07557">
        <ele>2328</ele>
        <time>2021-05-11T14:44:02+02:00</time>
      </trkpt>
      <trkpt lat="45.88292" lon="7.07561">
        <ele>2343</ele>
        <time>2021-05-11T14:44:07+02:00</time>
      </trkpt>
      <trkpt lat="45.88304" lon="7.07605">
        <ele>2356</ele>
        <time>2021-05-11T14:44:12+02:00</time>
      </trkpt>
      <trkpt lat="45.88336" lon="7.07624">
        <ele>2377</ele>
        <time>2021-05-11T14:44:17+02:00</time>
      </trkpt>
      <trkpt lat="45.88396" lon="7.07609">
        <ele>2407</ele>
        <time>2021-05-11T14:44:22+02:00</time>
      </trkpt>
      <trkpt lat="45.88443" lon="7.07571">
        <ele>2423</ele>
        <time>2021-05-11T14:44:27+02:00</time>
      </trkpt>
      <trkpt lat="45.88486" lon="7.07549">
        <ele>2437</ele>
        <time>2021-05-11T14:44:32+02:00</time>
      </trkpt>
      <trkpt lat="45.88518" lon="7.07512">
        <ele>2433</ele>
        <time>2021-05-11T14:44:37+02:00</time>
      </trkpt>
      <trkpt lat="45.88549" lon="7.07528">
        <ele>2440</ele>
        <time>2021-05-11T14:44:42+02:00</time>
      </trkpt>
      <trkpt lat="45.88548" lon="7.07575">
        <ele>2454</ele>
        <time>2021-05-11T14:44:47+02:00</time>
      </trkpt>
      <trkpt lat="45.88571" lon="7.07638">
        <ele>2475</ele>
        <time>2021-05-11T14:44:52+02:00</time>
      </trkpt>
      <trkpt lat="45.88616" lon="7.07726">
        <ele>2503</ele>
        <time>2021-05-11T14:44:57+02:00</time>
      </trkpt>
      <trkpt lat="45.88689" lon="7.07736">
        <ele>2507</ele>
        <time>2021-05-11T14:45:02+02:00</time>
      </trkpt>
      <trkpt lat="45.88735" lon="7.07752">
        <ele>2514</ele>
        <time>2021-05-11T14:45:07+02:00</time>
      </trkpt>
      <trkpt lat="45.88782" lon="7.07754">
        <ele>2517</ele>
        <time>2021-05-11T14:45:12+02:00</time>
      </trkpt>
      <trkpt lat="45.88836" lon="7.07766">
        <ele>2525</ele>
        <time>2021-05-11T14:45:17+02:00</time>
      </trkpt>
      <trkpt lat="45.88896" lon="7.07811">
        <ele>2531</ele>
        <time>2021-05-11T14:45:22+02:00</time>
      </trkpt>
      <trkpt lat="45.88942" lon="7.07826">
        <ele>2523</ele>
        <time>2021-05-11T14:45:27+02:00</time>
      </trkpt>
      <trkpt lat="45.88978" lon="7.07815">
        <ele>2520</ele>
        <time>2021-05-11T14:45:32+02:00</time>
      </trkpt>
      <trkpt lat="45.89003" lon="7.07823">
        <ele>2514</ele>
        <time>2021-05-11T14:45:37+02:00</time>
      </trkpt>
      <trkpt lat="45.89049" lon="7.07826">
        <ele>2512</ele>
        <time>2021-05-11T14:45:42+02:00</time>
      </trkpt>
      <trkpt lat="45.89077" lon="7.07842">
        <ele>2509</ele>
        <time>2021-05-11T14:45:47+02:00</time>
      </trkpt>
      <trkpt lat="45.89118" lon="7.07894">
        <ele>2505</ele>
        <time>2021-05-11T14:45:52+02:00</time>
      </trkpt>
      <trkpt lat="45.89126" lon="7.07946">
        <ele>2498</ele>
        <time>2021-05-11T14:45:57+02:00</time>
      </trkpt>
      <trkpt lat="45.89145" lon="7.07998">
        <ele>2494</ele>
        <time>2021-05-11T14:46:02+02:00</time>
      </trkpt>
      <trkpt lat="45.89192" lon="7.08149">
        <ele>2487</ele>
        <time>2021-05-11T14:46:07+02:00</time>
      </trkpt>
      <trkpt lat="45.8919" lon="7.08258">
        <ele>2473</ele>
        <time>2021-05-11T14:46:12+02:00</time>
      </trkpt>
      <trkpt lat="45.89216" lon="7.0837">
        <ele>2466</ele>
        <time>2021-05-11T14:46:17+02:00</time>
      </trkpt>
      <trkpt lat="45.89207" lon="7.08418">
        <ele>2460</ele>
        <time>2021-05-11T14:46:22+02:00</time>
      </trkpt>
      <trkpt lat="45.89171" lon="7.08449">
        <ele>2449</ele>
        <time>2021-05-11T14:46:27+02:00</time>
      </trkpt>
      <trkpt lat="45.89141" lon="7.08496">
        <ele>2435</ele>
        <time>2021-05-11T14:46:32+02:00</time>
      </trkpt>
      <trkpt lat="45.8913" lon="7.08535">
        <ele>2427</ele>
        <time>2021-05-11T14:46:37+02:00</time>
      </trkpt>
      <trkpt lat="45.89142" lon="7.08587">
        <ele>2426</ele>
        <time>2021-05-11T14:46:42+02:00</time>
      </trkpt>
      <trkpt lat="45.89173" lon="7.08636">
        <ele>2427</ele>
        <time>2021-05-11T14:46:47+02:00</time>
      </trkpt>
      <trkpt lat="45.89192" lon="7.08712">
        <ele>2420</ele>
        <time>2021-05-11T14:46:52+02:00</time>
      </trkpt>
      <trkpt lat="45.89192" lon="7.08939">
        <ele>2399</ele>
        <time>2021-05-11T14:46:57+02:00</time>
      </trkpt>
      <trkpt lat="45.89206" lon="7.09">
        <ele>2398</ele>
        <time>2021-05-11T14:47:02+02:00</time>
      </trkpt>
      <trkpt lat="45.892" lon="7.09112">
        <ele>2386</ele>
        <time>2021-05-11T14:47:07+02:00</time>
      </trkpt>
      <trkpt lat="45.89215" lon="7.09267">
        <ele>2375</ele>
        <time>2021-05-11T14:47:12+02:00</time>
      </trkpt>
      <trkpt lat="45.89202" lon="7.09309">
        <ele>2364</ele>
        <time>2021-05-11T14:47:17+02:00</time>
      </trkpt>
      <trkpt lat="45.89212" lon="7.09379">
        <ele>2352</ele>
        <time>2021-05-11T14:47:22+02:00</time>
      </trkpt>
      <trkpt lat="45.89227" lon="7.09443">
        <ele>2339</ele>
        <time>2021-05-11T14:47:27+02:00</time>
      </trkpt>
      <trkpt lat="45.89259" lon="7.09504">
        <ele>2329</ele>
        <time>2021-05-11T14:47:32+02:00</time>
      </trkpt>
      <trkpt lat="45.89266" lon="7.09521">
        <ele>2328</ele>
        <time>2021-05-11T14:47:37+02:00</time>
      </trkpt>
      <trkpt lat="45.89275" lon="7.09556">
        <ele>2323</ele>
        <time>2021-05-11T14:47:42+02:00</time>
      </trkpt>
      <trkpt lat="45.89289" lon="7.09597">
        <ele>2318</ele>
        <time>2021-05-11T14:47:47+02:00</time>
      </trkpt>
      <trkpt lat="45.89305" lon="7.0969">
        <ele>2301</ele>
        <time>2021-05-11T14:47:52+02:00</time>
      </trkpt>
      <trkpt lat="45.89329" lon="7.09755">
        <ele>2295</ele>
        <time>2021-05-11T14:47:57+02:00</time>
      </trkpt>
      <trkpt lat="45.89335" lon="7.09778">
        <ele>2293</ele>
        <time>2021-05-11T14:48:02+02:00</time>
      </trkpt>
      <trkpt lat="45.89349" lon="7.09864">
        <ele>2280</ele>
        <time>2021-05-11T14:48:07+02:00</time>
      </trkpt>
      <trkpt lat="45.89409" lon="7.09942">
        <ele>2295</ele>
        <time>2021-05-11T14:48:12+02:00</time>
      </trkpt>
      <trkpt lat="45.89422" lon="7.09991">
        <ele>2284</ele>
        <time>2021-05-11T14:48:17+02:00</time>
      </trkpt>
      <trkpt lat="45.89461" lon="7.10044">
        <ele>2284</ele>
        <time>2021-05-11T14:48:22+02:00</time>
      </trkpt>
      <trkpt lat="45.89486" lon="7.10102">
        <ele>2276</ele>
        <time>2021-05-11T14:48:27+02:00</time>
      </trkpt>
      <trkpt lat="45.89523" lon="7.10347">
        <ele>2228</ele>
        <time>2021-05-11T14:48:32+02:00</time>
      </trkpt>
      <trkpt lat="45.89545" lon="7.10448">
        <ele>2218</ele>
        <time>2021-05-11T14:48:37+02:00</time>
      </trkpt>
      <trkpt lat="45.89562" lon="7.10517">
        <ele>2214</ele>
        <time>2021-05-11T14:48:42+02:00</time>
      </trkpt>
      <trkpt lat="45.89581" lon="7.10627">
        <ele>2205</ele>
        <time>2021-05-11T14:48:47+02:00</time>
      </trkpt>
      <trkpt lat="45.89648" lon="7.10776">
        <ele>2199</ele>
        <time>2021-05-11T14:48:52+02:00</time>
      </trkpt>
      <trkpt lat="45.89739" lon="7.10942">
        <ele>2178</ele>
        <time>2021-05-11T14:48:57+02:00</time>
      </trkpt>
      <trkpt lat="45.898" lon="7.11038">
        <ele>2156</ele>
        <time>2021-05-11T14:49:02+02:00</time>
      </trkpt>
      <trkpt lat="45.89859" lon="7.11087">
        <ele>2144</ele>
        <time>2021-05-11T14:49:07+02:00</time>
      </trkpt>
      <trkpt lat="45.89838" lon="7.11131">
        <ele>2126</ele>
        <time>2021-05-11T14:49:12+02:00</time>
      </trkpt>
      <trkpt lat="45.89932" lon="7.11216">
        <ele>2097</ele>
        <time>2021-05-11T14:49:17+02:00</time>
      </trkpt>
      <trkpt lat="45.89914" lon="7.11263">
        <ele>2080</ele>
        <time>2021-05-11T14:49:22+02:00</time>
      </trkpt>
      <trkpt lat="45.89881" lon="7.11287">
        <ele>2070</ele>
        <time>2021-05-11T14:49:27+02:00</time>
      </trkpt>
      <trkpt lat="45.89955" lon="7.11338">
        <ele>2057</ele>
        <time>2021-05-11T14:49:32+02:00</time>
      </trkpt>
      <trkpt lat="45.90032" lon="7.11355">
        <ele>2049</ele>
        <time>2021-05-11T14:49:37+02:00</time>
      </trkpt>
      <trkpt lat="45.90088" lon="7.11335">
        <ele>2047</ele>
        <time>2021-05-11T14:49:42+02:00</time>
      </trkpt>
      <trkpt lat="45.90136" lon="7.11331">
        <ele>2039</ele>
        <time>2021-05-11T14:49:47+02:00</time>
      </trkpt>
      <trkpt lat="45.90192" lon="7.11327">
        <ele>2030</ele>
        <time>2021-05-11T14:49:52+02:00</time>
      </trkpt>
      <trkpt lat="45.90246" lon="7.11307">
        <ele>2023</ele>
        <time>2021-05-11T14:49:57+02:00</time>
      </trkpt>
      <trkpt lat="45.90276" lon="7.11242">
        <ele>2028</ele>
        <time>2021-05-11T14:50:02+02:00</time>
      </trkpt>
      <trkpt lat="45.90327" lon="7.11199">
        <ele>2018</ele>
        <time>2021-05-11T14:50:07+02:00</time>
      </trkpt>
      <trkpt lat="45.90338" lon="7.11166">
        <ele>2024</ele>
        <time>2021-05-11T14:50:12+02:00</time>
      </trkpt>
      <trkpt lat="45.90342" lon="7.11123">
        <ele>2027</ele>
        <time>2021-05-11T14:50:17+02:00</time>
      </trkpt>
      <trkpt lat="45.9036" lon="7.11089">
        <ele>2024</ele>
        <time>2021-05-11T14:50:22+02:00</time>
      </trkpt>
      <trkpt lat="45.90384" lon="7.11092">
        <ele>2012</ele>
        <time>2021-05-11T14:50:27+02:00</time>
      </trkpt>
      <trkpt lat="45.90409" lon="7.11083">
        <ele>2005</ele>
        <time>2021-05-11T14:50:32+02:00</time>
      </trkpt>
      <trkpt lat="45.90466" lon="7.1106">
        <ele>1993</ele>
        <time>2021-05-11T14:50:37+02:00</time>
      </trkpt>
      <trkpt lat="45.90491" lon="7.11044">
        <ele>1986</ele>
        <time>2021-05-11T14:50:42+02:00</time>
      </trkpt>
      <trkpt lat="45.90508" lon="7.10998">
        <ele>1986</ele>
        <time>2021-05-11T14:50:47+02:00</time>
      </trkpt>
      <trkpt lat="45.90531" lon="7.10978">
        <ele>1975</ele>
        <time>2021-05-11T14:50:52+02:00</time>
      </trkpt>
      <trkpt lat="45.90545" lon="7.10944">
        <ele>1973</ele>
        <time>2021-05-11T14:50:57+02:00</time>
      </trkpt>
      <trkpt lat="45.90574" lon="7.10892">
        <ele>1966</ele>
        <time>2021-05-11T14:51:02+02:00</time>
      </trkpt>
      <trkpt lat="45.90605" lon="7.1085">
        <ele>1952</ele>
        <time>2021-05-11T14:51:07+02:00</time>
      </trkpt>
      <trkpt lat="45.90597" lon="7.10767">
        <ele>1969</ele>
        <time>2021-05-11T14:51:12+02:00</time>
      </trkpt>
      <trkpt lat="45.90634" lon="7.10761">
        <ele>1953</ele>
        <time>2021-05-11T14:51:17+02:00</time>
      </trkpt>
      <trkpt lat="45.90658" lon="7.1073">
        <ele>1956</ele>
        <time>2021-05-11T14:51:22+02:00</time>
      </trkpt>
      <trkpt lat="45.90674" lon="7.10719">
        <ele>1956</ele>
        <time>2021-05-11T14:51:27+02:00</time>
      </trkpt>
      <trkpt lat="45.90716" lon="7.10708">
        <ele>1954</ele>
        <time>2021-05-11T14:51:32+02:00</time>
      </trkpt>
      <trkpt lat="45.90747" lon="7.10651">
        <ele>1971</ele>
        <time>2021-05-11T14:51:37+02:00</time>
      </trkpt>
      <trkpt lat="45.90768" lon="7.10595">
        <ele>1982</ele>
        <time>2021-05-11T14:51:42+02:00</time>
      </trkpt>
      <trkpt lat="45.90794" lon="7.1055">
        <ele>1986</ele>
        <time>2021-05-11T14:51:47+02:00</time>
      </trkpt>
      <trkpt lat="45.90815" lon="7.10503">
        <ele>1991</ele>
        <time>2021-05-11T14:51:52+02:00</time>
      </trkpt>
      <trkpt lat="45.90825" lon="7.10471">
        <ele>1989</ele>
        <time>2021-05-11T14:51:57+02:00</time>
      </trkpt>
      <trkpt lat="45.90811" lon="7.10399">
        <ele>2005</ele>
        <time>2021-05-11T14:52:02+02:00</time>
      </trkpt>
      <trkpt lat="45.90809" lon="7.10327">
        <ele>2010</ele>
        <time>2021-05-11T14:52:07+02:00</time>
      </trkpt>
      <trkpt lat="45.90835" lon="7.1024">
        <ele>2009</ele>
        <time>2021-05-11T14:52:12+02:00</time>
      </trkpt>
      <trkpt lat="45.90864" lon="7.10203">
        <ele>2001</ele>
        <time>2021-05-11T14:52:17+02:00</time>
      </trkpt>
      <trkpt lat="45.90898" lon="7.10139">
        <ele>1993</ele>
        <time>2021-05-11T14:52:22+02:00</time>
      </trkpt>
      <trkpt lat="45.90911" lon="7.10032">
        <ele>2000</ele>
        <time>2021-05-11T14:52:27+02:00</time>
      </trkpt>
      <trkpt lat="45.90935" lon="7.10017">
        <ele>1991</ele>
        <time>2021-05-11T14:52:32+02:00</time>
      </trkpt>
      <trkpt lat="45.90945" lon="7.09991">
        <ele>1996</ele>
        <time>2021-05-11T14:52:37+02:00</time>
      </trkpt>
      <trkpt lat="45.90968" lon="7.09987">
        <ele>1989</ele>
        <time>2021-05-11T14:52:42+02:00</time>
      </trkpt>
      <trkpt lat="45.91005" lon="7.09995">
        <ele>1972</ele>
        <time>2021-05-11T14:52:47+02:00</time>
      </trkpt>
      <trkpt lat="45.91041" lon="7.09982">
        <ele>1971</ele>
        <time>2021-05-11T14:52:52+02:00</time>
      </trkpt>
      <trkpt lat="45.91089" lon="7.10003">
        <ele>1954</ele>
        <time>2021-05-11T14:52:57+02:00</time>
      </trkpt>
      <trkpt lat="45.91148" lon="7.10004">
        <ele>1943</ele>
        <time>2021-05-11T14:53:02+02:00</time>
      </trkpt>
      <trkpt lat="45.91148" lon="7.09952">
        <ele>1943</ele>
        <time>2021-05-11T14:53:07+02:00</time>
      </trkpt>
      <trkpt lat="45.91137" lon="7.0991">
        <ele>1947</ele>
        <time>2021-05-11T14:53:12+02:00</time>
      </trkpt>
      <trkpt lat="45.91112" lon="7.09848">
        <ele>1947</ele>
        <time>2021-05-11T14:53:17+02:00</time>
      </trkpt>
      <trkpt lat="45.91106" lon="7.09764">
        <ele>1934</ele>
        <time>2021-05-11T14:53:22+02:00</time>
      </trkpt>
      <trkpt lat="45.91107" lon="7.09722">
        <ele>1927</ele>
        <time>2021-05-11T14:53:27+02:00</time>
      </trkpt>
      <trkpt lat="45.91113" lon="7.09699">
        <ele>1922</ele>
        <time>2021-05-11T14:53:32+02:00</time>
      </trkpt>
      <trkpt lat="45.91153" lon="7.09668">
        <ele>1900</ele>
        <time>2021-05-11T14:53:37+02:00</time>
      </trkpt>
      <trkpt lat="45.91185" lon="7.09689">
        <ele>1887</ele>
        <time>2021-05-11T14:53:42+02:00</time>
      </trkpt>
      <trkpt lat="45.91199" lon="7.09732">
        <ele>1885</ele>
        <time>2021-05-11T14:53:47+02:00</time>
      </trkpt>
      <trkpt lat="45.91224" lon="7.09786">
        <ele>1880</ele>
        <time>2021-05-11T14:53:52+02:00</time>
      </trkpt>
      <trkpt lat="45.91275" lon="7.09878">
        <ele>1866</ele>
        <time>2021-05-11T14:53:57+02:00</time>
      </trkpt>
      <trkpt lat="45.91322" lon="7.0999">
        <ele>1851</ele>
        <time>2021-05-11T14:54:02+02:00</time>
      </trkpt>
      <trkpt lat="45.9135" lon="7.10041">
        <ele>1838</ele>
        <time>2021-05-11T14:54:07+02:00</time>
      </trkpt>
      <trkpt lat="45.91369" lon="7.10071">
        <ele>1829</ele>
        <time>2021-05-11T14:54:12+02:00</time>
      </trkpt>
      <trkpt lat="45.91401" lon="7.10082">
        <ele>1812</ele>
        <time>2021-05-11T14:54:17+02:00</time>
      </trkpt>
      <trkpt lat="45.91428" lon="7.10085">
        <ele>1800</ele>
        <time>2021-05-11T14:54:22+02:00</time>
      </trkpt>
      <trkpt lat="45.91451" lon="7.10064">
        <ele>1794</ele>
        <time>2021-05-11T14:54:27+02:00</time>
      </trkpt>
      <trkpt lat="45.91487" lon="7.10079">
        <ele>1782</ele>
        <time>2021-05-11T14:54:32+02:00</time>
      </trkpt>
      <trkpt lat="45.91527" lon="7.10077">
        <ele>1770</ele>
        <time>2021-05-11T14:54:37+02:00</time>
      </trkpt>
      <trkpt lat="45.91562" lon="7.10065">
        <ele>1757</ele>
        <time>2021-05-11T14:54:42+02:00</time>
      </trkpt>
      <trkpt lat="45.9159" lon="7.10076">
        <ele>1751</ele>
        <time>2021-05-11T14:54:47+02:00</time>
      </trkpt>
      <trkpt lat="45.91613" lon="7.10053">
        <ele>1736</ele>
        <time>2021-05-11T14:54:52+02:00</time>
      </trkpt>
      <trkpt lat="45.91653" lon="7.10073">
        <ele>1727</ele>
        <time>2021-05-11T14:54:57+02:00</time>
      </trkpt>
      <trkpt lat="45.91687" lon="7.10072">
        <ele>1713</ele>
        <time>2021-05-11T14:55:02+02:00</time>
      </trkpt>
      <trkpt lat="45.91696" lon="7.10094">
        <ele>1709</ele>
        <time>2021-05-11T14:55:07+02:00</time>
      </trkpt>
      <trkpt lat="45.91717" lon="7.10119">
        <ele>1695</ele>
        <time>2021-05-11T14:55:12+02:00</time>
      </trkpt>
      <trkpt lat="45.91751" lon="7.10133">
        <ele>1680</ele>
        <time>2021-05-11T14:55:17+02:00</time>
      </trkpt>
      <trkpt lat="45.91783" lon="7.10166">
        <ele>1673</ele>
        <time>2021-05-11T14:55:22+02:00</time>
      </trkpt>
      <trkpt lat="45.91811" lon="7.10158">
        <ele>1671</ele>
        <time>2021-05-11T14:55:27+02:00</time>
      </trkpt>
      <trkpt lat="45.91828" lon="7.10132">
        <ele>1673</ele>
        <time>2021-05-11T14:55:32+02:00</time>
      </trkpt>
      <trkpt lat="45.91856" lon="7.10116">
        <ele>1672</ele>
        <time>2021-05-11T14:55:37+02:00</time>
      </trkpt>
      <trkpt lat="45.9189" lon="7.10147">
        <ele>1664</ele>
        <time>2021-05-11T14:55:42+02:00</time>
      </trkpt>
      <trkpt lat="45.91937" lon="7.10166">
        <ele>1658</ele>
        <time>2021-05-11T14:55:47+02:00</time>
      </trkpt>
      <trkpt lat="45.91965" lon="7.10022">
        <ele>1673</ele>
        <time>2021-05-11T14:55:52+02:00</time>
      </trkpt>
      <trkpt lat="45.91979" lon="7.09995">
        <ele>1674</ele>
        <time>2021-05-11T14:55:57+02:00</time>
      </trkpt>
      <trkpt lat="45.92005" lon="7.09973">
        <ele>1675</ele>
        <time>2021-05-11T14:56:02+02:00</time>
      </trkpt>
      <trkpt lat="45.92049" lon="7.09951">
        <ele>1676</ele>
        <time>2021-05-11T14:56:07+02:00</time>
      </trkpt>
      <trkpt lat="45.92083" lon="7.09928">
        <ele>1677</ele>
        <time>2021-05-11T14:56:12+02:00</time>
      </trkpt>
      <trkpt lat="45.92113" lon="7.09892">
        <ele>1678</ele>
        <time>2021-05-11T14:56:17+02:00</time>
      </trkpt>
      <trkpt lat="45.92144" lon="7.09824">
        <ele>1685</ele>
        <time>2021-05-11T14:56:22+02:00</time>
      </trkpt>
      <trkpt lat="45.92194" lon="7.09745">
        <ele>1683</ele>
        <time>2021-05-11T14:56:27+02:00</time>
      </trkpt>
      <trkpt lat="45.9223" lon="7.09696">
        <ele>1679</ele>
        <time>2021-05-11T14:56:32+02:00</time>
      </trkpt>
      <trkpt lat="45.92248" lon="7.09635">
        <ele>1686</ele>
        <time>2021-05-11T14:56:37+02:00</time>
      </trkpt>
      <trkpt lat="45.92327" lon="7.09629">
        <ele>1671</ele>
        <time>2021-05-11T14:56:42+02:00</time>
      </trkpt>
      <trkpt lat="45.92377" lon="7.09616">
        <ele>1665</ele>
        <time>2021-05-11T14:56:47+02:00</time>
      </trkpt>
      <trkpt lat="45.92402" lon="7.0959">
        <ele>1666</ele>
        <time>2021-05-11T14:56:52+02:00</time>
      </trkpt>
      <trkpt lat="45.92415" lon="7.09543">
        <ele>1668</ele>
        <time>2021-05-11T14:56:57+02:00</time>
      </trkpt>
      <trkpt lat="45.92459" lon="7.09663">
        <ele>1637</ele>
        <time>2021-05-11T14:57:02+02:00</time>
      </trkpt>
      <trkpt lat="45.92491" lon="7.09665">
        <ele>1628</ele>
        <time>2021-05-11T14:57:07+02:00</time>
      </trkpt>
      <trkpt lat="45.92527" lon="7.09667">
        <ele>1619</ele>
        <time>2021-05-11T14:57:12+02:00</time>
      </trkpt>
      <trkpt lat="45.92562" lon="7.09649">
        <ele>1621</ele>
        <time>2021-05-11T14:57:17+02:00</time>
      </trkpt>
      <trkpt lat="45.92582" lon="7.09672">
        <ele>1619</ele>
        <time>2021-05-11T14:57:22+02:00</time>
      </trkpt>
      <trkpt lat="45.92685" lon="7.09687">
        <ele>1626</ele>
        <time>2021-05-11T14:57:27+02:00</time>
      </trkpt>
      <trkpt lat="45.92737" lon="7.09682">
        <ele>1629</ele>
        <time>2021-05-11T14:57:32+02:00</time>
      </trkpt>
      <trkpt lat="45.92788" lon="7.0965">
        <ele>1627</ele>
        <time>2021-05-11T14:57:37+02:00</time>
      </trkpt>
      <trkpt lat="45.92851" lon="7.09581">
        <ele>1617</ele>
        <time>2021-05-11T14:57:42+02:00</time>
      </trkpt>
      <trkpt lat="45.92911" lon="7.09574">
        <ele>1617</ele>
        <time>2021-05-11T14:57:47+02:00</time>
      </trkpt>
      <trkpt lat="45.92959" lon="7.09608">
        <ele>1614</ele>
        <time>2021-05-11T14:57:52+02:00</time>
      </trkpt>
      <trkpt lat="45.93002" lon="7.09679">
        <ele>1614</ele>
        <time>2021-05-11T14:57:57+02:00</time>
      </trkpt>
      <trkpt lat="45.9311" lon="7.09786">
        <ele>1611</ele>
        <time>2021-05-11T14:58:02+02:00</time>
      </trkpt>
      <trkpt lat="45.93181" lon="7.09901">
        <ele>1608</ele>
        <time>2021-05-11T14:58:07+02:00</time>
      </trkpt>
      <trkpt lat="45.93316" lon="7.09885">
        <ele>1602</ele>
        <time>2021-05-11T14:58:12+02:00</time>
      </trkpt>
    </trkseg>
  </trk>
</gpx>